Time;durP1;ratioP1;P1;durP2;ratioP2;P2;SDS_P1;SDS_P2;PMS_P1;PMS_P2;Temp;Humidity;BMP_temperature;BMP_pressure;BME280_temperature;BME280_humidity;BME280_pressure;Samples;Min_cycle;Max_cycle;Signal;HPM_P1;HPM_P2
2023/09/12 00:00:52;;;;;;;11.65;6.50;;;17.30;99.90;;;;;;5035246;28;20607;-84
2023/09/12 00:03:21;;;;;;;16.15;6.07;;;17.30;99.90;;;;;;5036163;28;20182;-84
2023/09/12 00:05:57;;;;;;;10.98;5.80;;;17.30;99.90;;;;;;5012182;28;20194;-84
2023/09/12 00:08:25;;;;;;;12.18;6.57;;;17.30;99.90;;;;;;5031792;28;20193;-83
2023/09/12 00:11:10;;;;;;;13.50;6.00;;;17.30;99.90;;;;;;5039951;28;20558;-84
2023/09/12 00:13:41;;;;;;;11.95;6.05;;;17.20;99.90;;;;;;5016251;28;20185;-83
2023/09/12 00:16:12;;;;;;;14.07;6.07;;;17.20;99.90;;;;;;5040136;28;20329;-84
2023/09/12 00:18:40;;;;;;;15.05;6.15;;;17.20;99.90;;;;;;5031696;28;20190;-83
2023/09/12 00:21:08;;;;;;;10.95;5.75;;;17.20;99.90;;;;;;5035929;28;20186;-83
2023/09/12 00:23:36;;;;;;;9.07;5.82;;;17.10;99.90;;;;;;5031718;28;20220;-84
2023/09/12 00:26:04;;;;;;;10.68;6.22;;;17.10;99.90;;;;;;5028096;28;20273;-83
2023/09/12 00:28:34;;;;;;;9.18;5.60;;;17.10;99.90;;;;;;5038373;28;20189;-83
2023/09/12 00:31:01;;;;;;;12.25;5.78;;;17.10;99.90;;;;;;5032921;28;20194;-83
2023/09/12 00:33:29;;;;;;;11.98;5.55;;;17.10;99.90;;;;;;5040335;28;20198;-83
2023/09/12 00:35:58;;;;;;;14.32;6.03;;;17.10;99.90;;;;;;5016108;28;20299;-84
2023/09/12 00:38:29;;;;;;;9.00;6.00;;;17.10;99.90;;;;;;5037880;28;20201;-83
2023/09/12 00:40:57;;;;;;;14.30;6.22;;;17.10;99.90;;;;;;5033085;28;20205;-82
2023/09/12 00:43:25;;;;;;;12.35;6.15;;;17.00;99.90;;;;;;5035726;28;20555;-84
2023/09/12 00:45:52;;;;;;;11.35;5.80;;;17.00;99.90;;;;;;5029246;28;20317;-84
2023/09/12 00:48:22;;;;;;;11.27;6.25;;;16.90;99.90;;;;;;5036756;28;20214;-83
2023/09/12 00:50:51;;;;;;;12.48;5.90;;;16.90;99.90;;;;;;5027941;28;20200;-84
2023/09/12 00:53:20;;;;;;;10.57;6.13;;;16.90;99.90;;;;;;5035477;28;20185;-84
2023/09/12 00:55:56;;;;;;;17.75;6.07;;;17.00;99.90;;;;;;5036932;28;20208;-83
2023/09/12 00:58:25;;;;;;;11.65;5.47;;;16.90;99.90;;;;;;5036172;28;20671;-84
2023/09/12 01:00:53;;;;;;;10.52;6.32;;;16.90;99.90;;;;;;5026032;28;20201;-83
2023/09/12 01:03:21;;;;;;;10.20;5.47;;;16.90;99.90;;;;;;5039577;28;20600;-82
2023/09/12 01:05:49;;;;;;;10.43;5.25;;;16.90;99.90;;;;;;5037742;28;20185;-83
2023/09/12 01:08:17;;;;;;;9.40;5.00;;;16.80;99.90;;;;;;5016195;28;20286;-84
2023/09/12 01:10:47;;;;;;;12.55;6.15;;;16.80;99.90;;;;;;5011979;28;20566;-83
2023/09/12 01:13:16;;;;;;;8.25;5.95;;;16.80;99.90;;;;;;5031225;28;20225;-83
2023/09/12 01:15:43;;;;;;;11.68;5.72;;;16.80;99.90;;;;;;5029742;28;20236;-84
2023/09/12 01:18:11;;;;;;;9.60;5.55;;;16.80;99.90;;;;;;5034193;28;20186;-83
2023/09/12 01:20:50;;;;;;;14.95;6.57;;;16.80;99.90;;;;;;5033487;28;20266;-83
2023/09/12 01:23:50;;;;;;;15.52;5.75;;;16.70;99.90;;;;;;5021730;28;20624;-84
2023/09/12 01:26:29;;;;;;;8.98;5.80;;;16.80;99.90;;;;;;5036654;28;20641;-83
2023/09/12 01:28:59;;;;;;;12.90;5.90;;;16.80;99.90;;;;;;5028284;28;20190;-84
2023/09/12 01:31:28;;;;;;;12.73;6.10;;;16.70;99.90;;;;;;5035862;28;20182;-83
2023/09/12 01:34:00;;;;;;;8.60;5.65;;;16.70;99.90;;;;;;5037499;27;20272;-83
2023/09/12 01:36:28;;;;;;;11.63;5.72;;;16.70;99.90;;;;;;5038320;28;20209;-84
2023/09/12 01:38:55;;;;;;;9.32;5.63;;;16.70;99.90;;;;;;5029283;28;20190;-83
2023/09/12 01:41:23;;;;;;;12.20;5.53;;;16.70;99.90;;;;;;5034626;28;20265;-83
2023/09/12 01:43:52;;;;;;;11.82;5.50;;;16.60;99.90;;;;;;5032446;28;20193;-83
2023/09/12 01:46:21;;;;;;;17.48;6.43;;;16.70;99.90;;;;;;5043851;28;20274;-84
2023/09/12 01:48:51;;;;;;;8.80;5.13;;;16.60;99.90;;;;;;5035746;28;20212;-84
2023/09/12 01:51:20;;;;;;;14.52;6.28;;;16.50;99.90;;;;;;5032572;28;20194;-82
2023/09/12 01:53:50;;;;;;;18.70;5.50;;;16.40;99.90;;;;;;5033944;28;20765;-84
2023/09/12 01:56:20;;;;;;;8.13;5.05;;;16.40;99.90;;;;;;5037644;28;20237;-82
2023/09/12 01:58:48;;;;;;;12.30;5.50;;;16.50;99.90;;;;;;5039163;28;20189;-84
2023/09/12 02:01:15;;;;;;;11.98;5.90;;;16.50;99.90;;;;;;5033578;28;20243;-83
2023/09/12 02:03:43;;;;;;;11.25;5.75;;;16.60;99.90;;;;;;5036285;28;20538;-83
2023/09/12 02:06:11;;;;;;;12.48;5.78;;;16.60;99.90;;;;;;5038494;28;20739;-84
2023/09/12 02:08:39;;;;;;;15.48;6.20;;;16.50;99.90;;;;;;5040019;28;20292;-84
2023/09/12 02:11:08;;;;;;;8.57;5.85;;;16.40;99.90;;;;;;5025133;28;20686;-83
2023/09/12 02:13:36;;;;;;;10.95;5.00;;;16.50;99.90;;;;;;5033045;28;20194;-83
2023/09/12 02:16:04;;;;;;;9.95;5.45;;;16.50;99.90;;;;;;5039930;28;20282;-84
2023/09/12 02:18:32;;;;;;;9.68;5.63;;;16.50;99.90;;;;;;5038238;28;20185;-83
2023/09/12 02:20:59;;;;;;;7.90;5.15;;;16.50;99.90;;;;;;5020328;28;20193;-83
2023/09/12 02:23:27;;;;;;;8.55;5.22;;;16.40;99.90;;;;;;5038056;28;20652;-83
2023/09/12 02:25:56;;;;;;;8.40;5.53;;;16.40;99.90;;;;;;5026709;28;20695;-85
2023/09/12 02:28:24;;;;;;;11.18;5.05;;;16.40;99.90;;;;;;5040220;28;20328;-84
2023/09/12 02:30:52;;;;;;;11.43;5.45;;;16.40;99.90;;;;;;5021888;28;20197;-83
2023/09/12 02:33:20;;;;;;;11.55;5.22;;;16.40;99.90;;;;;;5019845;28;20569;-84
2023/09/12 02:35:48;;;;;;;9.20;5.60;;;16.30;99.90;;;;;;5029824;28;20565;-83
2023/09/12 02:38:16;;;;;;;10.88;4.97;;;16.30;99.90;;;;;;5037564;28;20336;-84
2023/09/12 02:40:44;;;;;;;10.07;5.07;;;16.30;99.90;;;;;;5032758;28;20676;-82
2023/09/12 02:43:11;;;;;;;8.27;4.65;;;16.30;99.90;;;;;;5038464;28;20185;-83
2023/09/12 02:45:39;;;;;;;13.57;5.88;;;16.20;99.90;;;;;;5032473;28;20194;-83
2023/09/12 02:48:07;;;;;;;8.43;4.82;;;16.20;99.90;;;;;;5039950;28;20193;-84
2023/09/12 02:50:35;;;;;;;10.18;4.85;;;16.20;99.90;;;;;;5019552;28;20182;-83
2023/09/12 02:53:03;;;;;;;7.50;5.28;;;16.20;99.90;;;;;;5036115;28;20194;-84
2023/09/12 02:55:31;;;;;;;10.85;4.68;;;16.20;99.90;;;;;;5033775;28;20225;-84
2023/09/12 02:57:59;;;;;;;9.18;4.63;;;16.20;99.90;;;;;;5036353;28;20198;-83
2023/09/12 03:00:27;;;;;;;9.00;4.65;;;16.20;99.90;;;;;;5038600;28;20698;-83
2023/09/12 03:02:55;;;;;;;11.05;5.22;;;16.10;99.90;;;;;;5038377;28;20182;-83
2023/09/12 03:05:22;;;;;;;8.10;5.40;;;16.10;99.90;;;;;;5030085;28;20685;-83
2023/09/12 03:07:50;;;;;;;8.52;5.25;;;16.10;99.90;;;;;;5038770;28;20228;-84
2023/09/12 03:10:18;;;;;;;8.80;5.38;;;16.10;99.90;;;;;;5042065;28;20190;-83
2023/09/12 03:12:46;;;;;;;11.65;4.90;;;16.10;99.90;;;;;;5036016;28;20666;-84
2023/09/12 03:15:14;;;;;;;11.75;5.32;;;16.10;99.90;;;;;;5036091;28;20193;-84
2023/09/12 03:17:42;;;;;;;8.82;4.97;;;16.00;99.90;;;;;;5031402;28;20186;-84
2023/09/12 03:20:10;;;;;;;7.60;4.90;;;16.00;99.90;;;;;;5022498;28;20190;-84
2023/09/12 03:22:38;;;;;;;13.82;5.63;;;16.00;99.90;;;;;;5062349;27;20607;-84
2023/09/12 03:25:07;;;;;;;9.07;5.72;;;16.00;99.90;;;;;;5029317;28;20190;-82
2023/09/12 03:27:35;;;;;;;7.80;5.10;;;16.00;99.90;;;;;;5036477;28;20186;-83
2023/09/12 03:30:05;;;;;;;11.48;4.90;;;15.90;99.90;;;;;;5038349;28;20275;-84
2023/09/12 03:32:33;;;;;;;10.23;5.05;;;16.00;99.90;;;;;;5036809;28;20186;-83
2023/09/12 03:35:01;;;;;;;6.60;4.68;;;15.90;99.90;;;;;;5019729;28;20206;-83
2023/09/12 03:37:29;;;;;;;8.63;4.85;;;15.90;99.90;;;;;;5037250;28;20194;-83
2023/09/12 03:39:56;;;;;;;9.70;5.53;;;15.90;99.90;;;;;;5030770;28;20194;-84
2023/09/12 03:42:24;;;;;;;11.25;5.38;;;15.80;99.90;;;;;;5034166;28;20179;-83
2023/09/12 03:45:04;;;;;;;9.77;5.40;;;15.80;99.90;;;;;;5037328;28;20186;-84
2023/09/12 03:47:32;;;;;;;10.35;5.63;;;15.70;99.90;;;;;;5019299;28;20225;-83
2023/09/12 03:50:00;;;;;;;9.73;4.63;;;15.70;99.90;;;;;;5035397;28;20261;-84
2023/09/12 03:52:28;;;;;;;8.40;5.25;;;15.80;99.90;;;;;;5036736;28;20241;-84
2023/09/12 03:54:56;;;;;;;10.18;5.25;;;15.80;99.90;;;;;;5036894;28;20194;-83
2023/09/12 03:57:25;;;;;;;8.57;4.72;;;15.70;99.90;;;;;;5038796;28;20773;-84
2023/09/12 03:59:53;;;;;;;9.68;5.78;;;15.80;99.90;;;;;;5036644;28;20220;-83
2023/09/12 04:02:21;;;;;;;10.70;5.65;;;15.80;99.90;;;;;;5029543;28;20181;-83
2023/09/12 04:04:49;;;;;;;10.60;5.93;;;15.80;99.90;;;;;;5035231;28;20190;-83
2023/09/12 04:07:17;;;;;;;6.70;4.97;;;15.60;99.90;;;;;;5031375;28;20193;-84
2023/09/12 04:09:44;;;;;;;9.75;5.65;;;15.70;99.90;;;;;;5023481;28;20195;-83
2023/09/12 04:12:12;;;;;;;9.73;4.93;;;15.70;99.90;;;;;;5019003;28;20181;-84
2023/09/12 04:14:40;;;;;;;10.00;4.88;;;15.70;99.90;;;;;;5032183;28;20282;-82
2023/09/12 04:17:08;;;;;;;6.75;4.72;;;15.70;99.90;;;;;;5037514;28;20204;-83
2023/09/12 04:19:36;;;;;;;8.57;4.90;;;15.70;99.90;;;;;;5025132;28;20251;-83
2023/09/12 04:22:04;;;;;;;11.02;5.03;;;15.70;99.90;;;;;;5030909;28;20191;-84
2023/09/12 04:24:32;;;;;;;10.13;5.20;;;15.70;99.90;;;;;;5033998;28;20186;-84
2023/09/12 04:27:00;;;;;;;11.80;5.63;;;15.80;99.90;;;;;;5019015;28;20217;-84
2023/09/12 04:29:29;;;;;;;8.25;4.50;;;15.70;99.90;;;;;;5034804;28;20194;-83
2023/09/12 04:31:59;;;;;;;16.30;5.72;;;15.70;99.90;;;;;;5021419;27;20193;-84
2023/09/12 04:34:27;;;;;;;8.90;5.07;;;15.70;99.90;;;;;;5037066;28;20216;-82
2023/09/12 04:36:55;;;;;;;9.27;5.60;;;15.70;99.90;;;;;;5039680;28;20269;-84
2023/09/12 04:39:24;;;;;;;9.13;5.55;;;15.80;99.90;;;;;;4994230;28;20193;-83
2023/09/12 04:41:52;;;;;;;10.02;5.63;;;15.70;99.90;;;;;;5035860;28;20193;-83
2023/09/12 04:44:20;;;;;;;8.07;5.05;;;15.70;99.90;;;;;;5034581;28;20668;-83
2023/09/12 04:46:48;;;;;;;10.20;5.55;;;15.80;99.90;;;;;;5041724;28;20322;-82
2023/09/12 04:49:16;;;;;;;8.10;5.32;;;15.90;99.90;;;;;;5017829;28;20232;-83
2023/09/12 04:51:43;;;;;;;7.68;4.80;;;15.90;99.90;;;;;;5036714;28;20672;-83
2023/09/12 04:54:11;;;;;;;8.60;5.35;;;15.90;99.90;;;;;;5037701;28;20678;-83
2023/09/12 04:56:39;;;;;;;11.05;6.00;;;16.00;99.90;;;;;;5038707;28;20202;-84
2023/09/12 04:59:07;;;;;;;11.88;5.45;;;16.00;99.90;;;;;;5033931;28;20190;-83
2023/09/12 05:01:34;;;;;;;11.43;6.05;;;16.00;99.90;;;;;;5038368;28;20612;-83
2023/09/12 05:04:03;;;;;;;8.40;5.38;;;15.90;99.90;;;;;;5035463;28;20189;-83
2023/09/12 05:06:31;;;;;;;7.72;4.95;;;16.00;99.90;;;;;;5025452;28;20202;-83
2023/09/12 05:08:59;;;;;;;9.35;5.20;;;16.00;99.90;;;;;;5016365;28;20723;-83
2023/09/12 05:11:27;;;;;;;10.93;5.55;;;16.00;99.90;;;;;;5034663;28;20198;-83
2023/09/12 05:13:55;;;;;;;10.85;5.70;;;16.00;99.90;;;;;;5002904;28;20213;-83
2023/09/12 05:16:22;;;;;;;10.18;4.97;;;16.00;99.90;;;;;;5007107;28;20216;-83
2023/09/12 05:18:50;;;;;;;8.07;5.32;;;16.00;99.90;;;;;;5036656;28;20196;-83
2023/09/12 05:21:18;;;;;;;11.93;5.82;;;16.10;99.90;;;;;;5034023;28;20193;-83
2023/09/12 05:23:46;;;;;;;9.20;5.57;;;16.10;99.90;;;;;;5035066;28;20190;-82
2023/09/12 05:26:13;;;;;;;9.40;5.15;;;16.10;99.90;;;;;;5044606;28;20208;-83
2023/09/12 05:28:41;;;;;;;13.43;6.40;;;16.10;99.90;;;;;;5038568;28;20535;-84
2023/09/12 05:31:09;;;;;;;12.27;5.80;;;16.10;99.90;;;;;;5031930;28;20190;-83
2023/09/12 05:33:37;;;;;;;13.77;6.25;;;16.10;99.90;;;;;;5039055;28;20222;-84
2023/09/12 05:36:05;;;;;;;9.75;6.10;;;16.00;99.90;;;;;;5037883;28;20284;-84
2023/09/12 05:38:33;;;;;;;13.27;5.70;;;16.10;99.90;;;;;;5037038;28;20193;-83
2023/09/12 05:41:01;;;;;;;9.30;5.75;;;16.10;99.90;;;;;;5039961;28;20205;-83
2023/09/12 05:43:29;;;;;;;12.05;6.65;;;16.10;99.90;;;;;;5021105;28;20234;-84
2023/09/12 05:45:58;;;;;;;9.63;5.72;;;16.10;99.90;;;;;;5030285;28;20294;-84
2023/09/12 05:48:25;;;;;;;18.13;7.30;;;16.10;99.90;;;;;;5036006;28;20205;-83
2023/09/12 05:50:53;;;;;;;13.85;6.70;;;16.10;99.90;;;;;;5043412;28;20201;-83
2023/09/12 05:53:21;;;;;;;15.55;5.70;;;16.20;99.90;;;;;;5035257;28;20190;-84
2023/09/12 05:55:49;;;;;;;8.05;6.13;;;16.20;99.90;;;;;;5022241;28;20648;-84
2023/09/12 05:58:17;;;;;;;9.60;6.13;;;16.30;99.90;;;;;;5036585;28;20186;-83
2023/09/12 06:00:46;;;;;;;14.05;7.57;;;16.40;99.90;;;;;;5037961;28;20189;-83
2023/09/12 06:03:15;;;;;;;11.30;6.55;;;16.40;99.90;;;;;;5029581;28;20167;-83
2023/09/12 06:05:43;;;;;;;13.25;7.10;;;16.40;99.90;;;;;;5030323;28;20182;-84
2023/09/12 06:08:11;;;;;;;11.02;6.68;;;16.40;99.90;;;;;;5038175;28;20743;-83
2023/09/12 06:10:39;;;;;;;10.55;6.43;;;16.40;99.90;;;;;;5034913;28;20194;-83
2023/09/12 06:13:06;;;;;;;11.25;5.90;;;16.50;99.90;;;;;;5037342;28;20190;-83
2023/09/12 06:15:36;;;;;;;10.82;5.93;;;16.50;99.90;;;;;;5039329;28;20241;-84
2023/09/12 06:18:04;;;;;;;11.60;6.30;;;16.50;99.90;;;;;;5022179;28;20209;-83
2023/09/12 06:20:32;;;;;;;14.07;5.75;;;16.50;99.90;;;;;;5036492;28;20567;-83
2023/09/12 06:22:59;;;;;;;12.57;5.80;;;16.60;99.90;;;;;;5037333;28;20666;-83
2023/09/12 06:25:29;;;;;;;8.57;5.63;;;16.60;99.90;;;;;;5037295;28;20185;-82
2023/09/12 06:27:56;;;;;;;10.02;5.70;;;16.60;99.90;;;;;;5038110;28;20193;-83
2023/09/12 06:30:24;;;;;;;10.25;6.07;;;16.70;99.90;;;;;;5034311;28;20194;-82
2023/09/12 06:32:52;;;;;;;18.20;6.55;;;16.70;99.90;;;;;;5038387;28;20217;-83
2023/09/12 06:35:20;;;;;;;13.27;6.00;;;16.80;99.90;;;;;;5044397;28;20587;-84
2023/09/12 06:37:48;;;;;;;12.48;5.78;;;16.80;99.90;;;;;;5033074;28;20218;-83
2023/09/12 06:40:15;;;;;;;24.77;6.03;;;16.80;99.90;;;;;;5032801;28;20185;-83
2023/09/12 06:42:43;;;;;;;11.25;5.88;;;17.00;99.90;;;;;;5039261;28;20205;-83
2023/09/12 06:45:11;;;;;;;12.38;6.25;;;17.00;99.90;;;;;;5036152;28;20193;-85
2023/09/12 06:47:39;;;;;;;12.00;6.50;;;17.00;99.90;;;;;;5037797;28;20711;-83
2023/09/12 06:50:07;;;;;;;12.60;6.68;;;17.10;99.90;;;;;;5036422;28;20555;-84
2023/09/12 06:52:40;;;;;;;11.32;5.80;;;17.10;99.90;;;;;;5040772;28;20193;-83
2023/09/12 06:55:08;;;;;;;7.75;5.15;;;17.10;99.90;;;;;;5036371;28;20204;-83
2023/09/12 06:57:36;;;;;;;12.15;5.78;;;17.10;99.90;;;;;;5037237;28;20695;-84
2023/09/12 07:00:07;;;;;;;17.48;6.78;;;17.20;99.90;;;;;;5035487;28;20255;-84
2023/09/12 07:02:34;;;;;;;12.02;6.20;;;17.30;99.90;;;;;;5037504;28;20213;-84
2023/09/12 07:05:03;;;;;;;12.85;6.53;;;17.30;99.90;;;;;;5020023;28;20198;-83
2023/09/12 07:07:32;;;;;;;14.93;6.68;;;17.40;99.90;;;;;;5033319;27;20197;-84
2023/09/12 07:10:00;;;;;;;11.10;6.60;;;17.40;99.90;;;;;;5037771;28;20201;-84
2023/09/12 07:12:47;;;;;;;9.75;6.07;;;17.40;99.90;;;;;;5031815;28;20292;-84
2023/09/12 07:15:15;;;;;;;14.02;6.30;;;17.40;99.90;;;;;;5035174;28;20607;-84
2023/09/12 07:17:43;;;;;;;13.65;6.05;;;17.40;99.90;;;;;;5037982;28;20230;-84
2023/09/12 07:20:11;;;;;;;8.13;5.47;;;17.50;99.90;;;;;;5036729;28;20186;-84
2023/09/12 07:22:40;;;;;;;9.68;5.47;;;17.50;99.90;;;;;;5033144;28;20182;-83
2023/09/12 07:25:09;;;;;;;9.20;5.15;;;17.50;99.90;;;;;;5038428;28;20205;-83
2023/09/12 07:27:37;;;;;;;13.88;6.53;;;17.50;99.90;;;;;;5039119;28;20194;-85
2023/09/12 07:30:06;;;;;;;12.25;6.45;;;17.60;99.90;;;;;;5039606;28;20196;-83
2023/09/12 07:32:34;;;;;;;12.23;5.57;;;17.70;99.90;;;;;;5037764;28;20212;-84
2023/09/12 07:35:02;;;;;;;11.80;5.65;;;17.80;99.90;;;;;;5028356;28;20216;-84
2023/09/12 07:37:30;;;;;;;9.55;5.78;;;17.90;99.90;;;;;;5036629;28;20216;-83
2023/09/12 07:39:58;;;;;;;11.43;5.38;;;17.90;99.90;;;;;;5042674;28;20193;-83
2023/09/12 07:42:25;;;;;;;13.18;5.72;;;18.10;99.90;;;;;;5039006;28;20186;-84
2023/09/12 07:44:53;;;;;;;9.85;5.43;;;18.20;99.90;;;;;;5036646;28;20544;-83
2023/09/12 07:47:21;;;;;;;10.00;5.78;;;18.20;99.90;;;;;;5030534;28;20290;-84
2023/09/12 07:49:55;;;;;;;10.25;5.43;;;18.30;99.90;;;;;;5040420;28;20194;-84
2023/09/12 07:52:23;;;;;;;12.68;5.90;;;18.50;99.90;;;;;;5027003;28;20675;-85
2023/09/12 07:54:56;;;;;;;10.30;5.68;;;18.50;99.90;;;;;;5038452;28;20686;-85
2023/09/12 07:57:24;;;;;;;11.02;5.03;;;18.50;99.90;;;;;;5034436;28;20193;-84
2023/09/12 07:59:52;;;;;;;12.73;5.10;;;18.60;99.90;;;;;;5038051;28;20177;-85
2023/09/12 08:02:20;;;;;;;14.50;5.47;;;18.60;99.90;;;;;;5037383;28;20239;-84
2023/09/12 08:04:50;;;;;;;16.35;5.72;;;18.90;99.90;;;;;;5034608;28;20273;-85
2023/09/12 08:07:18;;;;;;;12.02;5.07;;;18.80;99.90;;;;;;5026576;28;20193;-85
2023/09/12 08:09:57;;;;;;;10.70;5.32;;;18.90;99.90;;;;;;5029946;28;20192;-85
2023/09/12 08:12:26;;;;;;;10.15;5.00;;;18.90;99.90;;;;;;5037357;28;20651;-85
2023/09/12 08:14:55;;;;;;;10.13;5.57;;;19.00;99.90;;;;;;5020926;28;20194;-85
2023/09/12 08:17:23;;;;;;;7.18;5.05;;;19.20;99.90;;;;;;5037944;27;20202;-85
2023/09/12 08:19:51;;;;;;;14.73;5.18;;;19.20;99.90;;;;;;5036220;28;20186;-85
2023/09/12 08:22:19;;;;;;;9.80;4.82;;;19.30;99.90;;;;;;5036603;28;20202;-85
2023/09/12 08:24:47;;;;;;;10.68;5.07;;;19.40;99.90;;;;;;5054840;28;20189;-84
2023/09/12 08:27:15;;;;;;;11.35;5.45;;;19.50;99.90;;;;;;5033248;28;20668;-83
2023/09/12 08:29:44;;;;;;;8.75;4.97;;;19.50;99.90;;;;;;5040867;28;20200;-85
2023/09/12 08:32:12;;;;;;;12.32;5.20;;;19.60;99.90;;;;;;5036511;28;20193;-83
2023/09/12 08:34:39;;;;;;;8.80;5.38;;;19.70;99.90;;;;;;5029396;28;20243;-85
2023/09/12 08:37:07;;;;;;;12.38;4.60;;;19.80;99.90;;;;;;5030563;28;20662;-84
2023/09/12 08:39:45;;;;;;;13.00;5.07;;;19.80;99.90;;;;;;5036926;28;20868;-84
2023/09/12 08:42:16;;;;;;;8.63;4.28;;;19.80;99.90;;;;;;5033286;28;20189;-83
2023/09/12 08:44:44;;;;;;;9.73;5.00;;;19.90;99.90;;;;;;5014057;28;20202;-84
2023/09/12 08:47:14;;;;;;;11.73;5.25;;;20.00;99.90;;;;;;5029381;28;20256;-84
2023/09/12 08:49:44;;;;;;;9.00;4.43;;;20.00;99.90;;;;;;5034556;28;20277;-85
2023/09/12 08:52:13;;;;;;;9.73;4.80;;;20.00;99.90;;;;;;5037392;28;20202;-85
2023/09/12 08:54:41;;;;;;;14.52;4.07;;;20.10;99.90;;;;;;5033016;28;20202;-84
2023/09/12 08:57:12;;;;;;;7.88;4.65;;;20.00;99.90;;;;;;5025610;28;20275;-84
2023/09/12 08:59:43;;;;;;;10.38;4.70;;;20.20;99.90;;;;;;5034222;28;20189;-84
2023/09/12 09:02:12;;;;;;;10.55;4.78;;;20.40;99.90;;;;;;5034875;28;20656;-84
2023/09/12 09:04:42;;;;;;;7.90;4.32;;;20.40;99.90;;;;;;5035413;28;20200;-85
2023/09/12 09:07:13;;;;;;;10.38;4.93;;;20.70;99.90;;;;;;5036817;28;20256;-84
2023/09/12 09:09:41;;;;;;;13.32;4.45;;;20.60;99.90;;;;;;5027421;28;20194;-84
2023/09/12 09:12:10;;;;;;;10.25;4.63;;;20.60;99.90;;;;;;5036067;28;20234;-85
2023/09/12 09:14:38;;;;;;;7.90;4.90;;;20.70;99.90;;;;;;5034822;28;20193;-84
2023/09/12 09:17:06;;;;;;;8.35;3.90;;;20.80;99.90;;;;;;5037060;28;20750;-83
2023/09/12 09:19:42;;;;;;;11.65;4.47;;;20.80;99.90;;;;;;5037314;28;20181;-84
2023/09/12 09:22:10;;;;;;;7.53;4.25;;;20.70;99.90;;;;;;5038964;28;20665;-84
2023/09/12 09:24:38;;;;;;;8.20;4.18;;;21.00;99.90;;;;;;5035980;28;20595;-83
2023/09/12 09:27:05;;;;;;;7.82;4.07;;;21.00;99.90;;;;;;5013634;28;20190;-85
2023/09/12 09:29:48;;;;;;;11.63;4.85;;;21.30;99.90;;;;;;5037153;28;20667;-84
2023/09/12 09:32:21;;;;;;;14.80;4.15;;;21.40;99.90;;;;;;5027811;28;20194;-84
2023/09/12 09:34:50;;;;;;;10.80;4.05;;;21.30;99.90;;;;;;5034755;28;20193;-84
2023/09/12 09:37:19;;;;;;;10.93;4.20;;;21.30;99.90;;;;;;5035809;28;20282;-84
2023/09/12 09:39:52;;;;;;;11.18;4.80;;;21.40;99.90;;;;;;5027002;28;20660;-84
2023/09/12 09:42:20;;;;;;;8.43;4.28;;;21.40;99.90;;;;;;5034859;28;20664;-84
2023/09/12 09:44:49;;;;;;;12.63;4.32;;;21.40;99.90;;;;;;5034581;28;20197;-84
2023/09/12 09:47:19;;;;;;;8.45;4.07;;;21.60;99.90;;;;;;5029689;28;20226;-84
2023/09/12 09:49:47;;;;;;;15.85;4.63;;;21.50;99.90;;;;;;5031265;28;20246;-84
2023/09/12 09:52:14;;;;;;;11.70;3.83;;;21.60;99.90;;;;;;5035040;28;20188;-85
2023/09/12 09:54:45;;;;;;;15.20;4.15;;;21.70;99.90;;;;;;5017053;28;20670;-84
2023/09/12 09:57:13;;;;;;;13.85;4.50;;;21.70;99.90;;;;;;5035129;28;20209;-83
2023/09/12 09:59:42;;;;;;;11.07;4.15;;;21.80;99.90;;;;;;5036483;28;20209;-85
2023/09/12 10:02:19;;;;;;;14.00;4.47;;;21.70;99.90;;;;;;5035170;28;20265;-84
2023/09/12 10:04:48;;;;;;;12.88;4.28;;;21.80;99.90;;;;;;5031785;28;20182;-84
2023/09/12 10:07:28;;;;;;;9.23;4.00;;;21.80;99.90;;;;;;5036729;28;20273;-83
2023/09/12 10:09:58;;;;;;;14.35;5.03;;;22.00;99.90;;;;;;5026709;28;20258;-85
2023/09/12 10:12:28;;;;;;;11.55;4.40;;;21.90;99.90;;;;;;5036750;27;20189;-84
2023/09/12 10:15:00;;;;;;;9.20;4.15;;;21.80;99.90;;;;;;5035312;28;20201;-85
2023/09/12 10:17:33;;;;;;;12.77;4.47;;;22.00;99.90;;;;;;5037150;27;20197;-85
2023/09/12 10:20:09;;;;;;;12.40;3.85;;;22.10;99.90;;;;;;5033198;28;20195;-87
2023/09/12 10:22:55;;;;;;;11.55;4.55;;;22.10;99.90;;;;;;5038065;27;20217;-86
2023/09/12 10:25:24;;;;;;;16.52;4.28;;;22.30;99.90;;;;;;5034809;28;20272;-87
2023/09/12 10:27:54;;;;;;;9.90;4.03;;;22.40;99.90;;;;;;5037643;28;20198;-86
2023/09/12 10:30:23;;;;;;;12.63;3.88;;;22.20;99.90;;;;;;5021895;28;20288;-85
2023/09/12 10:32:52;;;;;;;11.27;4.72;;;22.40;99.90;;;;;;5040109;28;20201;-85
2023/09/12 10:35:20;;;;;;;10.50;5.28;;;22.60;99.90;;;;;;5012298;28;20198;-85
2023/09/12 10:37:50;;;;;;;11.60;4.53;;;22.70;99.90;;;;;;5033050;28;20236;-85
2023/09/12 10:40:19;;;;;;;12.25;5.10;;;22.60;99.90;;;;;;5034033;28;20185;-86
2023/09/12 10:42:49;;;;;;;15.00;4.53;;;22.70;99.90;;;;;;5034072;28;20274;-86
2023/09/12 10:45:18;;;;;;;12.77;5.22;;;22.70;99.90;;;;;;5030038;28;20185;-86
2023/09/12 10:47:46;;;;;;;12.85;5.38;;;22.70;99.90;;;;;;5042057;28;20751;-85
2023/09/12 10:50:14;;;;;;;13.18;5.15;;;22.70;99.90;;;;;;5037693;28;20237;-84
2023/09/12 10:52:43;;;;;;;15.10;5.57;;;23.10;99.90;;;;;;5037807;28;20258;-86
2023/09/12 10:55:19;;;;;;;14.45;5.82;;;23.00;99.90;;;;;;5033884;28;20732;-85
2023/09/12 10:58:06;;;;;;;11.80;5.40;;;23.00;99.90;;;;;;5027477;28;20201;-86
2023/09/12 11:00:34;;;;;;;9.82;4.97;;;23.10;99.90;;;;;;5024473;28;20178;-85
2023/09/12 11:03:31;;;;;;;9.98;4.40;;;23.10;99.90;;;;;;5037537;28;20265;-84
2023/09/12 11:05:58;;;;;;;11.57;4.72;;;23.20;99.90;;;;;;5025686;28;20202;-85
2023/09/12 11:08:27;;;;;;;10.13;4.22;;;23.30;99.90;;;;;;5036279;28;20305;-85
2023/09/12 11:11:19;;;;;;;14.70;5.03;;;23.40;99.90;;;;;;5037584;28;20193;-84
2023/09/12 11:14:02;;;;;;;12.43;4.80;;;23.40;99.90;;;;;;5041686;28;20189;-84
2023/09/12 11:16:30;;;;;;;17.73;6.07;;;23.40;99.90;;;;;;5034731;28;20205;-84
2023/09/12 11:19:26;;;;;;;15.57;5.90;;;23.50;99.90;;;;;;5037367;28;20210;-85
2023/09/12 11:21:55;;;;;;;12.57;5.53;;;23.40;99.90;;;;;;5037226;28;20214;-85
2023/09/12 11:24:23;;;;;;;11.48;5.47;;;23.60;99.90;;;;;;5038245;28;20186;-85
2023/09/12 11:26:59;;;;;;;16.20;6.03;;;23.60;99.90;;;;;;5036897;28;20367;-84
2023/09/12 11:29:47;;;;;;;15.95;5.65;;;23.50;99.90;;;;;;5035676;28;20185;-85
2023/09/12 11:32:31;;;;;;;10.13;5.25;;;23.60;99.90;;;;;;5036935;28;20185;-85
2023/09/12 11:35:04;;;;;;;14.02;4.95;;;23.70;99.90;;;;;;5009513;28;20197;-84
2023/09/12 11:37:33;;;;;;;13.13;5.60;;;23.50;99.90;;;;;;5033124;28;20213;-84
2023/09/12 11:40:00;;;;;;;12.75;5.93;;;23.60;99.90;;;;;;5043494;28;20192;-86
2023/09/12 11:42:29;;;;;;;13.65;5.60;;;23.80;99.90;;;;;;5028985;28;20614;-85
2023/09/12 11:44:57;;;;;;;15.90;5.63;;;24.00;99.90;;;;;;5032424;28;20551;-85
2023/09/12 11:47:25;;;;;;;11.38;5.82;;;24.10;99.90;;;;;;5031658;28;20302;-84
2023/09/12 11:49:54;;;;;;;10.90;5.03;;;24.00;99.90;;;;;;5034680;28;20197;-85
2023/09/12 11:52:23;;;;;;;12.52;5.93;;;24.10;99.90;;;;;;5042057;28;20209;-85
2023/09/12 11:54:54;;;;;;;13.15;5.70;;;24.00;99.90;;;;;;5041596;28;20189;-84
2023/09/12 11:57:22;;;;;;;13.88;5.97;;;24.10;99.90;;;;;;5041717;28;20190;-84
2023/09/12 11:59:51;;;;;;;11.23;5.32;;;23.90;99.90;;;;;;5038475;28;20187;-85
2023/09/12 12:02:19;;;;;;;14.07;6.00;;;24.10;99.90;;;;;;5043883;28;20682;-85
2023/09/12 12:04:47;;;;;;;13.50;5.40;;;24.40;99.90;;;;;;5027574;28;20555;-84
2023/09/12 12:07:15;;;;;;;15.50;5.72;;;24.40;99.90;;;;;;5036974;28;20190;-84
2023/09/12 12:09:44;;;;;;;14.38;6.10;;;24.50;99.90;;;;;;5031556;28;20190;-85
2023/09/12 12:12:14;;;;;;;10.45;5.80;;;24.50;99.90;;;;;;5039393;28;20216;-85
2023/09/12 12:14:44;;;;;;;17.85;6.40;;;24.60;99.90;;;;;;5036439;28;20194;-86
2023/09/12 12:17:13;;;;;;;10.57;6.10;;;24.60;99.90;;;;;;5031957;28;20220;-85
2023/09/12 12:19:46;;;;;;;17.13;6.78;;;24.60;99.90;;;;;;5037494;28;20209;-86
2023/09/12 12:22:13;;;;;;;21.38;7.00;;;24.80;99.90;;;;;;5036431;28;20186;-86
2023/09/12 12:24:45;;;;;;;15.40;6.55;;;24.50;99.90;;;;;;5042185;28;20246;-86
2023/09/12 12:27:15;;;;;;;11.68;5.90;;;24.70;99.90;;;;;;5035055;28;20223;-86
2023/09/12 12:29:43;;;;;;;14.05;5.88;;;24.90;99.90;;;;;;5023930;28;20239;-86
2023/09/12 12:32:15;;;;;;;14.23;5.88;;;24.70;99.90;;;;;;5036170;28;20200;-86
2023/09/12 12:34:48;;;;;;;10.98;5.85;;;24.70;99.90;;;;;;5037934;28;20956;-86
2023/09/12 12:37:37;;;;;;;13.25;5.68;;;24.70;99.90;;;;;;5031536;28;20216;-86
2023/09/12 12:40:06;;;;;;;7.80;5.07;;;25.00;99.90;;;;;;5028358;28;20201;-86
2023/09/12 12:42:38;;;;;;;12.93;5.93;;;24.90;99.90;;;;;;5024830;28;20221;-84
2023/09/12 12:45:23;;;;;;;8.73;5.80;;;24.50;99.90;;;;;;5034564;28;20490;-85
2023/09/12 12:48:01;;;;;;;12.63;5.72;;;24.60;99.90;;;;;;5030579;28;20280;-86
2023/09/12 12:50:29;;;;;;;12.00;5.55;;;24.50;99.90;;;;;;5036686;28;20185;-85
2023/09/12 12:52:57;;;;;;;12.48;5.28;;;24.30;99.90;;;;;;5033983;28;20197;-86